sensor_id;sensor_type;location;lat;lon;timestamp;P1;durP1;ratioP1;P2;durP2;ratioP2
32451;SDS011;45528;52.102;5.242;2023-03-16T00:02:11;8.1;;;5.11;;
32451;SDS011;45528;52.102;5.242;2023-03-16T00:03:47;9.21;;;5.0;;
32451;SDS011;45528;52.102;5.242;2023-03-16T00:05:23;7.4;;;4.8;;
32451;SDS011;45528;52.102;5.242;2023-03-16T00:08:36;8.31;;;4.8;;
32451;SDS011;45528;52.102;5.242;2023-03-16T00:10:12;8.71;;;5.3;;
32451;SDS011;45528;52.102;5.242;2023-03-16T00:11:49;8.9;;;5.4;;
32451;SDS011;45528;52.102;5.242;2023-03-16T00:15:01;10.1;;;4.91;;
32451;SDS011;45528;52.102;5.242;2023-03-16T00:16:37;8.6;;;5.2;;
32451;SDS011;45528;52.102;5.242;2023-03-16T00:18:14;7.0;;;5.2;;
32451;SDS011;45528;52.102;5.242;2023-03-16T00:19:51;9.21;;;5.2;;
32451;SDS011;45528;52.102;5.242;2023-03-16T00:23:05;8.2;;;5.0;;
32451;SDS011;45528;52.102;5.242;2023-03-16T00:24:41;9.1;;;5.4;;
32451;SDS011;45528;52.102;5.242;2023-03-16T00:26:17;9.81;;;5.4;;
32451;SDS011;45528;52.102;5.242;2023-03-16T00:29:29;7.8;;;5.0;;
32451;SDS011;45528;52.102;5.242;2023-03-16T00:31:06;8.6;;;5.7;;
32451;SDS011;45528;52.102;5.242;2023-03-16T00:32:45;10.0;;;5.5;;
32451;SDS011;45528;52.102;5.242;2023-03-16T00:35:57;8.4;;;5.6;;
32451;SDS011;45528;52.102;5.242;2023-03-16T00:37:33;11.7;;;5.7;;
32451;SDS011;45528;52.102;5.242;2023-03-16T00:39:09;8.6;;;5.8;;
32451;SDS011;45528;52.102;5.242;2023-03-16T00:40:45;9.71;;;5.7;;
32451;SDS011;45528;52.102;5.242;2023-03-16T00:43:59;10.7;;;6.2;;
32451;SDS011;45528;52.102;5.242;2023-03-16T00:45:36;8.4;;;5.4;;
32451;SDS011;45528;52.102;5.242;2023-03-16T00:47:12;9.0;;;5.5;;
32451;SDS011;45528;52.102;5.242;2023-03-16T00:50:25;8.5;;;5.7;;
32451;SDS011;45528;52.102;5.242;2023-03-16T00:52:01;9.9;;;5.6;;
32451;SDS011;45528;52.102;5.242;2023-03-16T00:53:39;9.81;;;6.1;;
32451;SDS011;45528;52.102;5.242;2023-03-16T00:56:52;8.71;;;6.2;;
32451;SDS011;45528;52.102;5.242;2023-03-16T00:58:29;9.71;;;6.0;;
32451;SDS011;45528;52.102;5.242;2023-03-16T01:00:05;9.71;;;6.0;;
32451;SDS011;45528;52.102;5.242;2023-03-16T01:01:42;11.1;;;5.8;;
32451;SDS011;45528;52.102;5.242;2023-03-16T01:04:54;9.0;;;5.8;;
32451;SDS011;45528;52.102;5.242;2023-03-16T01:06:30;9.4;;;6.1;;
32451;SDS011;45528;52.102;5.242;2023-03-16T01:08:06;11.1;;;6.3;;
32451;SDS011;45528;52.102;5.242;2023-03-16T01:11:21;8.71;;;6.0;;
32451;SDS011;45528;52.102;5.242;2023-03-16T01:12:59;11.1;;;6.2;;
32451;SDS011;45528;52.102;5.242;2023-03-16T01:14:35;10.0;;;5.9;;
32451;SDS011;45528;52.102;5.242;2023-03-16T01:17:49;9.1;;;5.8;;
32451;SDS011;45528;52.102;5.242;2023-03-16T01:19:25;10.0;;;6.3;;
32451;SDS011;45528;52.102;5.242;2023-03-16T01:21:03;10.6;;;6.0;;
32451;SDS011;45528;52.102;5.242;2023-03-16T01:22:41;10.4;;;6.4;;
32451;SDS011;45528;52.102;5.242;2023-03-16T01:25:54;8.2;;;6.0;;
32451;SDS011;45528;52.102;5.242;2023-03-16T01:27:31;12.4;;;6.5;;
32451;SDS011;45528;52.102;5.242;2023-03-16T01:29:07;9.4;;;6.4;;
32451;SDS011;45528;52.102;5.242;2023-03-16T01:32:19;10.6;;;6.4;;
32451;SDS011;45528;52.102;5.242;2023-03-16T01:33:55;8.1;;;6.1;;
32451;SDS011;45528;52.102;5.242;2023-03-16T01:35:32;8.31;;;6.3;;
32451;SDS011;45528;52.102;5.242;2023-03-16T01:38:45;8.2;;;6.2;;
32451;SDS011;45528;52.102;5.242;2023-03-16T01:40:22;7.9;;;6.0;;
32451;SDS011;45528;52.102;5.242;2023-03-16T01:41:58;9.0;;;5.9;;
32451;SDS011;45528;52.102;5.242;2023-03-16T01:43:35;10.21;;;6.3;;
32451;SDS011;45528;52.102;5.242;2023-03-16T01:47:58;9.0;;;6.1;;
32451;SDS011;45528;52.102;5.242;2023-03-16T01:51:13;11.6;;;6.8;;
32451;SDS011;45528;52.102;5.242;2023-03-16T01:52:53;8.81;;;6.1;;
32451;SDS011;45528;52.102;5.242;2023-03-16T01:54:30;10.6;;;6.3;;
32451;SDS011;45528;52.102;5.242;2023-03-16T01:56:10;12.5;;;6.5;;
32451;SDS011;45528;52.102;5.242;2023-03-16T01:59:31;8.4;;;6.3;;
32451;SDS011;45528;52.102;5.242;2023-03-16T02:01:13;8.6;;;6.2;;
32451;SDS011;45528;52.102;5.242;2023-03-16T02:02:50;10.6;;;6.8;;
32451;SDS011;45528;52.102;5.242;2023-03-16T02:04:34;9.31;;;5.8;;
32451;SDS011;45528;52.102;5.242;2023-03-16T02:07:55;11.8;;;6.3;;
32451;SDS011;45528;52.102;5.242;2023-03-16T02:09:32;11.8;;;6.4;;
32451;SDS011;45528;52.102;5.242;2023-03-16T02:11:12;13.3;;;6.7;;
32451;SDS011;45528;52.102;5.242;2023-03-16T02:12:49;9.21;;;6.1;;
32451;SDS011;45528;52.102;5.242;2023-03-16T02:16:03;10.4;;;6.5;;
32451;SDS011;45528;52.102;5.242;2023-03-16T02:17:43;9.81;;;6.5;;
32451;SDS011;45528;52.102;5.242;2023-03-16T02:19:23;13.0;;;6.7;;
32451;SDS011;45528;52.102;5.242;2023-03-16T02:21:12;9.71;;;6.5;;
32451;SDS011;45528;52.102;5.242;2023-03-16T02:24:32;10.1;;;6.6;;
32451;SDS011;45528;52.102;5.242;2023-03-16T02:26:12;9.0;;;6.4;;
32451;SDS011;45528;52.102;5.242;2023-03-16T02:27:56;10.9;;;6.5;;
32451;SDS011;45528;52.102;5.242;2023-03-16T02:29:58;12.0;;;6.6;;
32451;SDS011;45528;52.102;5.242;2023-03-16T02:31:50;11.1;;;6.1;;
32451;SDS011;45528;52.102;5.242;2023-03-16T02:35:08;12.5;;;6.9;;
32451;SDS011;45528;52.102;5.242;2023-03-16T02:36:45;10.1;;;6.3;;
32451;SDS011;45528;52.102;5.242;2023-03-16T02:38:24;9.6;;;6.3;;
32451;SDS011;45528;52.102;5.242;2023-03-16T02:40:01;8.1;;;6.6;;
32451;SDS011;45528;52.102;5.242;2023-03-16T02:43:30;9.9;;;6.5;;
32451;SDS011;45528;52.102;5.242;2023-03-16T02:45:10;12.2;;;6.5;;
32451;SDS011;45528;52.102;5.242;2023-03-16T02:46:47;7.6;;;6.4;;
32451;SDS011;45528;52.102;5.242;2023-03-16T02:48:24;11.9;;;6.5;;
32451;SDS011;45528;52.102;5.242;2023-03-16T02:51:47;10.6;;;6.7;;
32451;SDS011;45528;52.102;5.242;2023-03-16T02:53:24;10.5;;;6.4;;
32451;SDS011;45528;52.102;5.242;2023-03-16T02:55:00;9.6;;;6.9;;
32451;SDS011;45528;52.102;5.242;2023-03-16T02:58:13;8.81;;;6.5;;
32451;SDS011;45528;52.102;5.242;2023-03-16T02:59:50;10.5;;;6.6;;
32451;SDS011;45528;52.102;5.242;2023-03-16T03:01:26;8.31;;;6.0;;
32451;SDS011;45528;52.102;5.242;2023-03-16T03:03:02;10.5;;;6.3;;
32451;SDS011;45528;52.102;5.242;2023-03-16T03:06:17;10.9;;;7.1;;
32451;SDS011;45528;52.102;5.242;2023-03-16T03:07:53;9.0;;;6.4;;
32451;SDS011;45528;52.102;5.242;2023-03-16T03:09:29;9.6;;;6.2;;
32451;SDS011;45528;52.102;5.242;2023-03-16T03:12:42;10.21;;;6.6;;
32451;SDS011;45528;52.102;5.242;2023-03-16T03:14:18;12.9;;;6.9;;
32451;SDS011;45528;52.102;5.242;2023-03-16T03:15:54;11.9;;;6.9;;
32451;SDS011;45528;52.102;5.242;2023-03-16T03:19:07;10.4;;;6.4;;
32451;SDS011;45528;52.102;5.242;2023-03-16T03:20:43;10.4;;;6.5;;
32451;SDS011;45528;52.102;5.242;2023-03-16T03:22:20;10.9;;;6.6;;
32451;SDS011;45528;52.102;5.242;2023-03-16T03:23:56;10.6;;;6.8;;
32451;SDS011;45528;52.102;5.242;2023-03-16T03:27:08;10.6;;;6.4;;
32451;SDS011;45528;52.102;5.242;2023-03-16T03:28:45;9.31;;;6.4;;
32451;SDS011;45528;52.102;5.242;2023-03-16T03:30:22;9.31;;;6.5;;
32451;SDS011;45528;52.102;5.242;2023-03-16T03:33:39;10.8;;;6.3;;
32451;SDS011;45528;52.102;5.242;2023-03-16T03:35:15;11.8;;;6.5;;
32451;SDS011;45528;52.102;5.242;2023-03-16T03:36:51;10.4;;;6.1;;
32451;SDS011;45528;52.102;5.242;2023-03-16T03:40:04;11.1;;;6.5;;
32451;SDS011;45528;52.102;5.242;2023-03-16T03:41:41;9.21;;;6.8;;
32451;SDS011;45528;52.102;5.242;2023-03-16T03:43:17;12.1;;;7.2;;
32451;SDS011;45528;52.102;5.242;2023-03-16T03:44:54;12.5;;;7.0;;
32451;SDS011;45528;52.102;5.242;2023-03-16T03:48:07;10.3;;;6.8;;
32451;SDS011;45528;52.102;5.242;2023-03-16T03:49:43;9.4;;;6.6;;
32451;SDS011;45528;52.102;5.242;2023-03-16T03:51:19;11.6;;;6.9;;
32451;SDS011;45528;52.102;5.242;2023-03-16T03:54:31;9.21;;;6.9;;
32451;SDS011;45528;52.102;5.242;2023-03-16T03:56:07;9.6;;;6.8;;
32451;SDS011;45528;52.102;5.242;2023-03-16T03:57:43;10.5;;;6.6;;
32451;SDS011;45528;52.102;5.242;2023-03-16T04:00:56;11.0;;;6.6;;
32451;SDS011;45528;52.102;5.242;2023-03-16T04:02:32;10.8;;;6.4;;
32451;SDS011;45528;52.102;5.242;2023-03-16T04:04:09;11.3;;;7.2;;
32451;SDS011;45528;52.102;5.242;2023-03-16T04:05:45;9.1;;;7.0;;
32451;SDS011;45528;52.102;5.242;2023-03-16T04:08:57;9.81;;;6.8;;
32451;SDS011;45528;52.102;5.242;2023-03-16T04:10:33;10.6;;;7.1;;
32451;SDS011;45528;52.102;5.242;2023-03-16T04:12:10;9.71;;;6.5;;
32451;SDS011;45528;52.102;5.242;2023-03-16T04:15:26;14.0;;;7.4;;
32451;SDS011;45528;52.102;5.242;2023-03-16T04:17:02;11.1;;;6.8;;
32451;SDS011;45528;52.102;5.242;2023-03-16T04:18:38;13.6;;;7.1;;
32451;SDS011;45528;52.102;5.242;2023-03-16T04:21:51;13.7;;;6.8;;
32451;SDS011;45528;52.102;5.242;2023-03-16T04:23:27;12.0;;;6.9;;
32451;SDS011;45528;52.102;5.242;2023-03-16T04:25:04;11.5;;;6.5;;
32451;SDS011;45528;52.102;5.242;2023-03-16T04:28:16;11.5;;;6.5;;
32451;SDS011;45528;52.102;5.242;2023-03-16T04:29:52;11.7;;;6.8;;
32451;SDS011;45528;52.102;5.242;2023-03-16T04:31:28;13.6;;;7.6;;
32451;SDS011;45528;52.102;5.242;2023-03-16T04:33:04;10.5;;;7.3;;
32451;SDS011;45528;52.102;5.242;2023-03-16T04:36:16;12.2;;;7.0;;
32451;SDS011;45528;52.102;5.242;2023-03-16T04:37:52;11.7;;;7.1;;
32451;SDS011;45528;52.102;5.242;2023-03-16T04:39:29;10.6;;;7.1;;
32451;SDS011;45528;52.102;5.242;2023-03-16T04:42:42;11.3;;;6.4;;
32451;SDS011;45528;52.102;5.242;2023-03-16T04:44:19;12.8;;;6.8;;
32451;SDS011;45528;52.102;5.242;2023-03-16T04:45:55;14.5;;;6.9;;
32451;SDS011;45528;52.102;5.242;2023-03-16T04:49:07;11.3;;;7.3;;
32451;SDS011;45528;52.102;5.242;2023-03-16T04:50:46;10.7;;;7.0;;
32451;SDS011;45528;52.102;5.242;2023-03-16T04:52:23;9.21;;;6.6;;
32451;SDS011;45528;52.102;5.242;2023-03-16T04:54:00;12.8;;;6.6;;
32451;SDS011;45528;52.102;5.242;2023-03-16T04:57:12;8.2;;;6.1;;
32451;SDS011;45528;52.102;5.242;2023-03-16T04:58:48;10.8;;;6.3;;
32451;SDS011;45528;52.102;5.242;2023-03-16T05:00:25;10.8;;;7.0;;
32451;SDS011;45528;52.102;5.242;2023-03-16T05:03:40;11.3;;;6.7;;
32451;SDS011;45528;52.102;5.242;2023-03-16T05:05:16;10.7;;;6.6;;
32451;SDS011;45528;52.102;5.242;2023-03-16T05:06:53;10.0;;;6.9;;
32451;SDS011;45528;52.102;5.242;2023-03-16T05:10:05;11.3;;;6.8;;
32451;SDS011;45528;52.102;5.242;2023-03-16T05:11:42;11.1;;;6.9;;
32451;SDS011;45528;52.102;5.242;2023-03-16T05:13:18;12.6;;;6.8;;
32451;SDS011;45528;52.102;5.242;2023-03-16T05:14:54;12.5;;;7.3;;
32451;SDS011;45528;52.102;5.242;2023-03-16T05:18:08;12.7;;;6.9;;
32451;SDS011;45528;52.102;5.242;2023-03-16T05:19:44;10.1;;;6.9;;
32451;SDS011;45528;52.102;5.242;2023-03-16T05:21:20;10.6;;;6.5;;
32451;SDS011;45528;52.102;5.242;2023-03-16T05:24:32;10.9;;;6.7;;
32451;SDS011;45528;52.102;5.242;2023-03-16T05:26:08;12.6;;;7.0;;
32451;SDS011;45528;52.102;5.242;2023-03-16T05:27:45;12.3;;;6.8;;
32451;SDS011;45528;52.102;5.242;2023-03-16T05:31:00;12.9;;;7.2;;
32451;SDS011;45528;52.102;5.242;2023-03-16T05:32:36;10.9;;;6.4;;
32451;SDS011;45528;52.102;5.242;2023-03-16T05:34:13;13.0;;;6.8;;
32451;SDS011;45528;52.102;5.242;2023-03-16T05:35:49;8.81;;;6.8;;
32451;SDS011;45528;52.102;5.242;2023-03-16T05:39:02;10.21;;;6.5;;
32451;SDS011;45528;52.102;5.242;2023-03-16T05:40:38;10.21;;;6.6;;
32451;SDS011;45528;52.102;5.242;2023-03-16T05:42:14;9.71;;;6.3;;
32451;SDS011;45528;52.102;5.242;2023-03-16T05:45:27;9.1;;;6.4;;
32451;SDS011;45528;52.102;5.242;2023-03-16T05:47:03;9.1;;;6.4;;
32451;SDS011;45528;52.102;5.242;2023-03-16T05:48:39;11.5;;;6.6;;
32451;SDS011;45528;52.102;5.242;2023-03-16T05:51:52;11.2;;;6.2;;
32451;SDS011;45528;52.102;5.242;2023-03-16T05:53:28;11.2;;;6.2;;
32451;SDS011;45528;52.102;5.242;2023-03-16T05:55:05;11.2;;;6.5;;
32451;SDS011;45528;52.102;5.242;2023-03-16T05:56:42;12.4;;;6.6;;
32451;SDS011;45528;52.102;5.242;2023-03-16T05:59:55;11.8;;;6.8;;
32451;SDS011;45528;52.102;5.242;2023-03-16T06:01:31;10.3;;;6.7;;
32451;SDS011;45528;52.102;5.242;2023-03-16T06:03:07;10.9;;;6.2;;
32451;SDS011;45528;52.102;5.242;2023-03-16T06:06:19;11.1;;;6.1;;
32451;SDS011;45528;52.102;5.242;2023-03-16T06:07:57;10.21;;;6.4;;
32451;SDS011;45528;52.102;5.242;2023-03-16T06:09:33;10.9;;;5.9;;
32451;SDS011;45528;52.102;5.242;2023-03-16T06:12:47;11.6;;;6.4;;
32451;SDS011;45528;52.102;5.242;2023-03-16T06:14:23;11.1;;;6.0;;
32451;SDS011;45528;52.102;5.242;2023-03-16T06:15:59;11.5;;;6.3;;
32451;SDS011;45528;52.102;5.242;2023-03-16T06:17:35;9.0;;;5.8;;
32451;SDS011;45528;52.102;5.242;2023-03-16T06:20:49;8.81;;;5.6;;
32451;SDS011;45528;52.102;5.242;2023-03-16T06:22:25;10.7;;;5.9;;
32451;SDS011;45528;52.102;5.242;2023-03-16T06:24:03;10.21;;;5.9;;
32451;SDS011;45528;52.102;5.242;2023-03-16T06:27:16;8.2;;;5.9;;
32451;SDS011;45528;52.102;5.242;2023-03-16T06:28:53;10.8;;;5.6;;
32451;SDS011;45528;52.102;5.242;2023-03-16T06:30:29;9.71;;;5.8;;
32451;SDS011;45528;52.102;5.242;2023-03-16T06:33:41;9.31;;;5.6;;
32451;SDS011;45528;52.102;5.242;2023-03-16T06:35:17;8.2;;;5.7;;
32451;SDS011;45528;52.102;5.242;2023-03-16T06:36:53;10.5;;;5.7;;
32451;SDS011;45528;52.102;5.242;2023-03-16T06:38:29;10.7;;;5.5;;
32451;SDS011;45528;52.102;5.242;2023-03-16T06:41:44;9.4;;;5.9;;
32451;SDS011;45528;52.102;5.242;2023-03-16T06:43:20;10.5;;;5.5;;
32451;SDS011;45528;52.102;5.242;2023-03-16T06:44:56;9.0;;;5.7;;
32451;SDS011;45528;52.102;5.242;2023-03-16T06:48:08;8.9;;;5.5;;
32451;SDS011;45528;52.102;5.242;2023-03-16T06:49:44;10.0;;;5.3;;
32451;SDS011;45528;52.102;5.242;2023-03-16T06:51:20;9.4;;;5.5;;
32451;SDS011;45528;52.102;5.242;2023-03-16T06:54:33;13.2;;;6.4;;
32451;SDS011;45528;52.102;5.242;2023-03-16T06:56:09;10.0;;;5.7;;
32451;SDS011;45528;52.102;5.242;2023-03-16T06:57:45;9.81;;;5.6;;
32451;SDS011;45528;52.102;5.242;2023-03-16T07:01:00;9.5;;;5.6;;
32451;SDS011;45528;52.102;5.242;2023-03-16T07:02:37;11.0;;;5.11;;
32451;SDS011;45528;52.102;5.242;2023-03-16T07:04:13;10.4;;;4.91;;
32451;SDS011;45528;52.102;5.242;2023-03-16T07:05:49;9.71;;;4.91;;
32451;SDS011;45528;52.102;5.242;2023-03-16T07:09:01;8.9;;;4.91;;
32451;SDS011;45528;52.102;5.242;2023-03-16T07:10:38;9.1;;;5.11;;
32451;SDS011;45528;52.102;5.242;2023-03-16T07:12:14;11.4;;;5.0;;
32451;SDS011;45528;52.102;5.242;2023-03-16T07:15:27;9.31;;;5.2;;
32451;SDS011;45528;52.102;5.242;2023-03-16T07:17:03;8.9;;;4.91;;
32451;SDS011;45528;52.102;5.242;2023-03-16T07:18:39;9.9;;;5.11;;
32451;SDS011;45528;52.102;5.242;2023-03-16T07:21:51;11.5;;;5.5;;
32451;SDS011;45528;52.102;5.242;2023-03-16T07:23:27;10.7;;;5.7;;
32451;SDS011;45528;52.102;5.242;2023-03-16T07:25:04;11.1;;;4.91;;
32451;SDS011;45528;52.102;5.242;2023-03-16T07:26:42;10.8;;;5.4;;
32451;SDS011;45528;52.102;5.242;2023-03-16T07:29:55;10.9;;;4.91;;
32451;SDS011;45528;52.102;5.242;2023-03-16T07:31:31;8.9;;;5.11;;
32451;SDS011;45528;52.102;5.242;2023-03-16T07:33:07;9.1;;;5.2;;
32451;SDS011;45528;52.102;5.242;2023-03-16T07:36:19;9.5;;;5.11;;
32451;SDS011;45528;52.102;5.242;2023-03-16T07:37:56;10.6;;;5.2;;
32451;SDS011;45528;52.102;5.242;2023-03-16T07:39:32;8.0;;;5.0;;
32451;SDS011;45528;52.102;5.242;2023-03-16T07:42:44;12.1;;;5.3;;
32451;SDS011;45528;52.102;5.242;2023-03-16T07:44:20;12.8;;;5.5;;
32451;SDS011;45528;52.102;5.242;2023-03-16T07:45:56;10.21;;;5.3;;
32451;SDS011;45528;52.102;5.242;2023-03-16T07:47:32;8.6;;;4.8;;
32451;SDS011;45528;52.102;5.242;2023-03-16T07:50:46;8.2;;;4.91;;
32451;SDS011;45528;52.102;5.242;2023-03-16T07:52:23;9.5;;;5.11;;
32451;SDS011;45528;52.102;5.242;2023-03-16T07:53:59;9.81;;;5.9;;
32451;SDS011;45528;52.102;5.242;2023-03-16T07:57:11;12.3;;;5.5;;
32451;SDS011;45528;52.102;5.242;2023-03-16T07:58:47;10.21;;;5.4;;
32451;SDS011;45528;52.102;5.242;2023-03-16T08:00:23;10.3;;;5.11;;
32451;SDS011;45528;52.102;5.242;2023-03-16T08:03:36;11.1;;;5.5;;
32451;SDS011;45528;52.102;5.242;2023-03-16T08:05:13;7.6;;;5.0;;
32451;SDS011;45528;52.102;5.242;2023-03-16T08:06:49;9.31;;;5.6;;
32451;SDS011;45528;52.102;5.242;2023-03-16T08:10:02;9.9;;;5.2;;
32451;SDS011;45528;52.102;5.242;2023-03-16T08:11:38;9.1;;;5.2;;
32451;SDS011;45528;52.102;5.242;2023-03-16T08:13:14;9.6;;;5.3;;
32451;SDS011;45528;52.102;5.242;2023-03-16T08:14:50;8.9;;;4.7;;
32451;SDS011;45528;52.102;5.242;2023-03-16T08:18:03;9.21;;;5.2;;
32451;SDS011;45528;52.102;5.242;2023-03-16T08:19:39;8.31;;;4.91;;
32451;SDS011;45528;52.102;5.242;2023-03-16T08:21:15;11.2;;;5.11;;
32451;SDS011;45528;52.102;5.242;2023-03-16T08:24:28;12.3;;;5.4;;
32451;SDS011;45528;52.102;5.242;2023-03-16T08:26:04;10.0;;;5.2;;
32451;SDS011;45528;52.102;5.242;2023-03-16T08:27:41;7.3;;;4.7;;
32451;SDS011;45528;52.102;5.242;2023-03-16T08:30:54;8.2;;;4.8;;
32451;SDS011;45528;52.102;5.242;2023-03-16T08:32:30;10.1;;;4.8;;
32451;SDS011;45528;52.102;5.242;2023-03-16T08:34:07;9.6;;;4.8;;
32451;SDS011;45528;52.102;5.242;2023-03-16T08:35:44;10.0;;;5.11;;
32451;SDS011;45528;52.102;5.242;2023-03-16T08:38:58;7.8;;;5.0;;
32451;SDS011;45528;52.102;5.242;2023-03-16T08:40:35;11.0;;;4.8;;
32451;SDS011;45528;52.102;5.242;2023-03-16T08:42:12;8.71;;;5.0;;
32451;SDS011;45528;52.102;5.242;2023-03-16T08:45:24;7.9;;;4.8;;
32451;SDS011;45528;52.102;5.242;2023-03-16T08:47:00;10.6;;;5.0;;
32451;SDS011;45528;52.102;5.242;2023-03-16T08:48:36;8.71;;;4.8;;
32451;SDS011;45528;52.102;5.242;2023-03-16T08:51:48;8.6;;;4.61;;
32451;SDS011;45528;52.102;5.242;2023-03-16T08:53:25;7.6;;;4.5;;
32451;SDS011;45528;52.102;5.242;2023-03-16T08:55:01;6.8;;;4.8;;
32451;SDS011;45528;52.102;5.242;2023-03-16T08:56:38;11.6;;;4.8;;
32451;SDS011;45528;52.102;5.242;2023-03-16T08:59:50;11.0;;;4.8;;
32451;SDS011;45528;52.102;5.242;2023-03-16T09:01:26;7.0;;;4.5;;
32451;SDS011;45528;52.102;5.242;2023-03-16T09:03:02;11.1;;;4.61;;
32451;SDS011;45528;52.102;5.242;2023-03-16T09:06:17;7.8;;;4.41;;
32451;SDS011;45528;52.102;5.242;2023-03-16T09:07:54;10.0;;;4.61;;
32451;SDS011;45528;52.102;5.242;2023-03-16T09:09:30;8.5;;;4.3;;
32451;SDS011;45528;52.102;5.242;2023-03-16T09:12:45;10.21;;;4.41;;
32451;SDS011;45528;52.102;5.242;2023-03-16T09:14:21;8.4;;;4.41;;
32451;SDS011;45528;52.102;5.242;2023-03-16T09:15:57;11.1;;;4.5;;
32451;SDS011;45528;52.102;5.242;2023-03-16T09:17:33;6.2;;;4.3;;
32451;SDS011;45528;52.102;5.242;2023-03-16T09:20:45;9.6;;;4.7;;
32451;SDS011;45528;52.102;5.242;2023-03-16T09:26:13;8.6;;;4.41;;
32451;SDS011;45528;52.102;5.242;2023-03-16T09:29:26;10.0;;;4.8;;
32451;SDS011;45528;52.102;5.242;2023-03-16T09:31:02;7.9;;;4.5;;
32451;SDS011;45528;52.102;5.242;2023-03-16T09:32:39;8.0;;;4.5;;
32451;SDS011;45528;52.102;5.242;2023-03-16T09:34:15;9.6;;;4.41;;
32451;SDS011;45528;52.102;5.242;2023-03-16T09:37:27;8.31;;;4.7;;
32451;SDS011;45528;52.102;5.242;2023-03-16T09:39:03;8.0;;;4.41;;
32451;SDS011;45528;52.102;5.242;2023-03-16T09:40:40;9.1;;;4.8;;
32451;SDS011;45528;52.102;5.242;2023-03-16T09:44:02;7.6;;;4.5;;
32451;SDS011;45528;52.102;5.242;2023-03-16T09:45:53;8.81;;;4.61;;
32451;SDS011;45528;52.102;5.242;2023-03-16T09:47:37;7.4;;;4.2;;
32451;SDS011;45528;52.102;5.242;2023-03-16T09:49:17;8.31;;;4.41;;
32451;SDS011;45528;52.102;5.242;2023-03-16T09:52:37;7.4;;;4.5;;
32451;SDS011;45528;52.102;5.242;2023-03-16T09:54:21;9.21;;;4.2;;
32451;SDS011;45528;52.102;5.242;2023-03-16T09:56:05;11.4;;;4.1;;
32451;SDS011;45528;52.102;5.242;2023-03-16T09:57:45;8.1;;;4.61;;
32451;SDS011;45528;52.102;5.242;2023-03-16T09:59:23;10.1;;;4.7;;
32451;SDS011;45528;52.102;5.242;2023-03-16T10:02:53;8.6;;;4.2;;
32451;SDS011;45528;52.102;5.242;2023-03-16T10:04:51;7.5;;;4.41;;
32451;SDS011;45528;52.102;5.242;2023-03-16T10:06:40;6.6;;;4.5;;
32451;SDS011;45528;52.102;5.242;2023-03-16T10:08:26;10.8;;;4.41;;
32451;SDS011;45528;52.102;5.242;2023-03-16T10:10:14;7.6;;;4.2;;
32451;SDS011;45528;52.102;5.242;2023-03-16T10:12:01;8.0;;;4.0;;
32451;SDS011;45528;52.102;5.242;2023-03-16T10:15:24;8.1;;;4.41;;
32451;SDS011;45528;52.102;5.242;2023-03-16T10:17:05;7.9;;;3.9;;
32451;SDS011;45528;52.102;5.242;2023-03-16T10:18:52;8.9;;;4.3;;
32451;SDS011;45528;52.102;5.242;2023-03-16T10:20:35;9.6;;;4.1;;
32451;SDS011;45528;52.102;5.242;2023-03-16T10:23:55;7.8;;;4.1;;
32451;SDS011;45528;52.102;5.242;2023-03-16T10:25:38;9.0;;;4.3;;
32451;SDS011;45528;52.102;5.242;2023-03-16T10:27:21;9.5;;;4.3;;
32451;SDS011;45528;52.102;5.242;2023-03-16T10:29:03;8.1;;;3.7;;
32451;SDS011;45528;52.102;5.242;2023-03-16T10:32:18;7.7;;;3.7;;
32451;SDS011;45528;52.102;5.242;2023-03-16T10:33:56;5.7;;;3.5;;
32451;SDS011;45528;52.102;5.242;2023-03-16T10:35:39;7.4;;;4.1;;
32451;SDS011;45528;52.102;5.242;2023-03-16T10:37:20;8.4;;;4.0;;
32451;SDS011;45528;52.102;5.242;2023-03-16T10:40:40;6.2;;;4.0;;
32451;SDS011;45528;52.102;5.242;2023-03-16T10:42:17;9.1;;;3.6;;
32451;SDS011;45528;52.102;5.242;2023-03-16T10:43:56;7.7;;;3.6;;
32451;SDS011;45528;52.102;5.242;2023-03-16T10:45:34;7.0;;;3.4;;
32451;SDS011;45528;52.102;5.242;2023-03-16T10:48:54;6.4;;;3.4;;
32451;SDS011;45528;52.102;5.242;2023-03-16T10:50:31;6.6;;;3.3;;
32451;SDS011;45528;52.102;5.242;2023-03-16T10:52:12;5.6;;;3.3;;
32451;SDS011;45528;52.102;5.242;2023-03-16T10:53:53;7.9;;;3.7;;
32451;SDS011;45528;52.102;5.242;2023-03-16T10:57:19;6.5;;;3.4;;
32451;SDS011;45528;52.102;5.242;2023-03-16T10:59:11;8.1;;;3.2;;
32451;SDS011;45528;52.102;5.242;2023-03-16T11:01:08;8.31;;;3.3;;
32451;SDS011;45528;52.102;5.242;2023-03-16T11:02:46;10.3;;;3.4;;
32451;SDS011;45528;52.102;5.242;2023-03-16T11:05:59;8.1;;;3.7;;
32451;SDS011;45528;52.102;5.242;2023-03-16T11:07:38;7.5;;;3.5;;
32451;SDS011;45528;52.102;5.242;2023-03-16T11:09:17;8.1;;;3.3;;
32451;SDS011;45528;52.102;5.242;2023-03-16T11:12:35;7.2;;;3.4;;
32451;SDS011;45528;52.102;5.242;2023-03-16T11:14:12;7.0;;;3.2;;
32451;SDS011;45528;52.102;5.242;2023-03-16T11:15:49;7.5;;;3.4;;
32451;SDS011;45528;52.102;5.242;2023-03-16T11:17:33;5.9;;;3.0;;
32451;SDS011;45528;52.102;5.242;2023-03-16T11:19:13;8.5;;;3.4;;
32451;SDS011;45528;52.102;5.242;2023-03-16T11:22:38;7.8;;;3.1;;
32451;SDS011;45528;52.102;5.242;2023-03-16T11:24:17;6.1;;;3.1;;
32451;SDS011;45528;52.102;5.242;2023-03-16T11:26:01;5.0;;;3.0;;
32451;SDS011;45528;52.102;5.242;2023-03-16T11:27:44;5.3;;;2.7;;
32451;SDS011;45528;52.102;5.242;2023-03-16T11:29:27;4.3;;;2.8;;
32451;SDS011;45528;52.102;5.242;2023-03-16T11:33:01;6.3;;;2.6;;
32451;SDS011;45528;52.102;5.242;2023-03-16T11:34:37;7.2;;;2.6;;
32451;SDS011;45528;52.102;5.242;2023-03-16T11:36:16;8.1;;;2.8;;
32451;SDS011;45528;52.102;5.242;2023-03-16T11:38:09;5.5;;;2.7;;
32451;SDS011;45528;52.102;5.242;2023-03-16T11:39:52;8.1;;;2.5;;
32451;SDS011;45528;52.102;5.242;2023-03-16T11:43:41;4.8;;;2.1;;
32451;SDS011;45528;52.102;5.242;2023-03-16T11:45:26;6.6;;;2.7;;
32451;SDS011;45528;52.102;5.242;2023-03-16T11:47:18;4.2;;;2.31;;
32451;SDS011;45528;52.102;5.242;2023-03-16T11:49:30;4.91;;;2.1;;
32451;SDS011;45528;52.102;5.242;2023-03-16T11:51:41;5.11;;;2.31;;
32451;SDS011;45528;52.102;5.242;2023-03-16T11:53:26;7.1;;;2.31;;
32451;SDS011;45528;52.102;5.242;2023-03-16T11:55:17;5.7;;;2.21;;
32451;SDS011;45528;52.102;5.242;2023-03-16T11:57:06;4.61;;;2.1;;
32451;SDS011;45528;52.102;5.242;2023-03-16T11:59:04;4.5;;;1.9;;
32451;SDS011;45528;52.102;5.242;2023-03-16T12:01:32;6.1;;;1.9;;
32451;SDS011;45528;52.102;5.242;2023-03-16T12:04:29;5.6;;;2.1;;
32451;SDS011;45528;52.102;5.242;2023-03-16T12:06:35;5.5;;;2.1;;
32451;SDS011;45528;52.102;5.242;2023-03-16T12:08:25;6.4;;;1.7;;
32451;SDS011;45528;52.102;5.242;2023-03-16T12:10:22;4.61;;;1.7;;
32451;SDS011;45528;52.102;5.242;2023-03-16T12:12:03;4.3;;;2.0;;
32451;SDS011;45528;52.102;5.242;2023-03-16T12:13:58;5.9;;;1.7;;
32451;SDS011;45528;52.102;5.242;2023-03-16T12:15:43;4.1;;;1.9;;
32451;SDS011;45528;52.102;5.242;2023-03-16T12:19:08;6.3;;;1.9;;
32451;SDS011;45528;52.102;5.242;2023-03-16T12:20:52;8.0;;;2.0;;
32451;SDS011;45528;52.102;5.242;2023-03-16T12:22:33;5.5;;;1.7;;
32451;SDS011;45528;52.102;5.242;2023-03-16T12:24:17;7.0;;;1.6;;
32451;SDS011;45528;52.102;5.242;2023-03-16T12:25:57;5.5;;;1.8;;
32451;SDS011;45528;52.102;5.242;2023-03-16T12:29:18;4.41;;;1.5;;
32451;SDS011;45528;52.102;5.242;2023-03-16T12:31:09;4.3;;;1.6;;
32451;SDS011;45528;52.102;5.242;2023-03-16T12:32:51;5.6;;;1.6;;
32451;SDS011;45528;52.102;5.242;2023-03-16T12:34:37;3.7;;;1.4;;
32451;SDS011;45528;52.102;5.242;2023-03-16T12:36:23;7.7;;;1.9;;
32451;SDS011;45528;52.102;5.242;2023-03-16T12:38:55;6.8;;;1.6;;
32451;SDS011;45528;52.102;5.242;2023-03-16T12:40:38;6.0;;;1.7;;
32451;SDS011;45528;52.102;5.242;2023-03-16T12:44:16;5.6;;;1.5;;
32451;SDS011;45528;52.102;5.242;2023-03-16T12:45:57;5.7;;;1.6;;
32451;SDS011;45528;52.102;5.242;2023-03-16T12:47:43;4.8;;;1.5;;
32451;SDS011;45528;52.102;5.242;2023-03-16T12:49:31;3.8;;;1.5;;
32451;SDS011;45528;52.102;5.242;2023-03-16T12:51:09;3.7;;;1.4;;
32451;SDS011;45528;52.102;5.242;2023-03-16T12:54:25;4.5;;;1.5;;
32451;SDS011;45528;52.102;5.242;2023-03-16T12:56:04;3.4;;;1.5;;
32451;SDS011;45528;52.102;5.242;2023-03-16T12:57:41;5.11;;;1.5;;